Time;durP1;ratioP1;P1;durP2;ratioP2;P2;SDS_P1;SDS_P2;PMS_P1;PMS_P2;Temp;Humidity;BMP_temperature;BMP_pressure;BME280_temperature;BME280_humidity;BME280_pressure;Samples;Min_cycle;Max_cycle;Signal;HPM_P1;HPM_P2
2023/06/09 00:02:07;;;;;;;1.73;1.63;;;11.80;99.90;;;;;;4942432;29;20131;-71
2023/06/09 00:04:35;;;;;;;1.73;1.63;;;11.70;99.90;;;;;;4943769;29;20040;-71
2023/06/09 00:07:02;;;;;;;1.38;1.27;;;11.60;99.90;;;;;;4932382;29;20329;-71
2023/06/09 00:09:31;;;;;;;1.33;1.33;;;11.80;99.90;;;;;;4946776;29;20411;-71
2023/06/09 00:11:56;;;;;;;;;;;11.80;99.90;;;;;;4940971;29;20038;-71
2023/06/09 00:14:22;;;;;;;1.27;1.20;;;11.70;99.90;;;;;;4943270;28;20319;-71
2023/06/09 00:16:47;;;;;;;0.95;0.82;;;11.60;99.90;;;;;;4937107;29;20054;-71
2023/06/09 00:19:14;;;;;;;1.42;1.35;;;11.60;99.90;;;;;;4930398;29;20151;-71
2023/06/09 00:21:39;;;;;;;0.77;0.77;;;11.70;99.90;;;;;;4932883;29;20059;-71
2023/06/09 00:24:05;;;;;;;1.85;0.85;;;11.50;99.90;;;;;;4931156;29;20122;-71
2023/06/09 00:26:31;;;;;;;2.78;1.25;;;11.60;99.90;;;;;;4933955;29;20083;-71
2023/06/09 00:28:57;;;;;;;1.13;1.13;;;11.50;99.90;;;;;;4938700;29;20075;-71
2023/06/09 00:31:22;;;;;;;2.08;1.88;;;11.60;99.90;;;;;;4945687;29;20039;-71
2023/06/09 00:33:48;;;;;;;1.15;0.88;;;11.70;99.90;;;;;;4938839;29;20040;-71
2023/06/09 00:36:14;;;;;;;1.85;1.75;;;11.90;99.90;;;;;;4942667;29;20047;-72
2023/06/09 00:38:40;;;;;;;0.93;0.93;;;11.60;99.90;;;;;;4938369;29;20390;-71
2023/06/09 00:41:06;;;;;;;1.50;1.15;;;11.60;99.90;;;;;;4927364;29;20044;-71
2023/06/09 00:43:31;;;;;;;0.93;0.93;;;11.70;99.90;;;;;;4934895;29;20670;-71
2023/06/09 00:46:01;;;;;;;2.05;1.40;;;11.50;99.90;;;;;;4939189;29;20528;-71
2023/06/09 00:48:27;;;;;;;3.80;1.67;;;11.50;99.90;;;;;;4926916;29;20509;-71
2023/06/09 00:50:52;;;;;;;1.05;0.95;;;11.50;99.90;;;;;;4942095;29;20119;-71
2023/06/09 00:53:18;;;;;;;0.68;0.68;;;11.50;99.90;;;;;;4935565;29;20047;-71
2023/06/09 00:55:44;;;;;;;1.15;1.10;;;11.40;99.90;;;;;;4929672;29;20039;-71
2023/06/09 00:58:10;;;;;;;1.58;0.85;;;11.40;99.90;;;;;;4927935;28;20074;-71
2023/06/09 01:00:38;;;;;;;0.77;0.77;;;11.50;99.90;;;;;;4936755;29;20097;-71
2023/06/09 01:03:04;;;;;;;2.17;1.92;;;11.50;99.90;;;;;;4940718;28;20441;-71
2023/06/09 01:05:36;;;;;;;0.70;0.52;;;11.50;99.90;;;;;;4943377;28;20040;-71
2023/06/09 01:08:25;;;;;;;0.57;0.57;;;11.50;99.90;;;;;;4939853;28;20052;-71
2023/06/09 01:11:09;;;;;;;0.88;0.88;;;11.50;99.90;;;;;;4932970;29;20480;-71
2023/06/09 01:13:57;;;;;;;1.05;1.05;;;11.50;99.90;;;;;;4924638;29;20482;-71
2023/06/09 01:16:28;;;;;;;1.60;1.42;;;11.30;99.90;;;;;;4931856;29;20060;-71
2023/06/09 01:18:58;;;;;;;0.98;0.93;;;11.40;99.90;;;;;;4942633;29;20389;-71
2023/06/09 01:21:40;;;;;;;1.75;1.40;;;11.20;99.90;;;;;;4946221;29;20106;-71
2023/06/09 01:24:30;;;;;;;0.88;0.88;;;11.30;99.90;;;;;;4934846;29;20496;-71
2023/06/09 01:26:59;;;;;;;2.08;1.40;;;11.10;99.90;;;;;;4933897;29;20044;-71
2023/06/09 01:29:26;;;;;;;1.30;1.20;;;11.30;99.90;;;;;;4929074;29;20051;-71
2023/06/09 01:31:54;;;;;;;0.85;0.85;;;11.40;99.90;;;;;;4933595;29;20055;-71
2023/06/09 01:34:20;;;;;;;0.52;0.52;;;11.20;99.90;;;;;;4937095;29;20685;-71
2023/06/09 01:36:47;;;;;;;0.57;0.57;;;11.20;99.90;;;;;;4941750;28;20493;-71
2023/06/09 01:39:14;;;;;;;1.33;1.13;;;11.10;99.90;;;;;;4940274;29;20051;-71
2023/06/09 01:41:40;;;;;;;2.33;1.25;;;11.40;99.90;;;;;;4944288;28;20442;-71
2023/06/09 01:44:06;;;;;;;1.85;0.45;;;11.30;99.90;;;;;;4941987;29;20090;-71
2023/06/09 01:46:31;;;;;;;4.95;3.25;;;11.20;99.90;;;;;;4927694;29;20538;-71
2023/06/09 01:49:00;;;;;;;1.60;1.50;;;11.20;99.90;;;;;;4939447;29;20039;-71
2023/06/09 01:51:29;;;;;;;1.17;1.08;;;11.10;99.90;;;;;;4945324;29;20520;-71
2023/06/09 01:54:07;;;;;;;0.50;0.50;;;11.20;99.90;;;;;;4944716;29;20047;-71
2023/06/09 01:56:50;;;;;;;1.10;1.05;;;11.20;99.90;;;;;;4930829;29;20126;-71
2023/06/09 01:59:20;;;;;;;0.80;0.80;;;11.20;99.90;;;;;;4943743;29;20070;-71
2023/06/09 02:01:48;;;;;;;1.05;1.05;;;11.10;99.90;;;;;;4929416;29;20039;-71
2023/06/09 02:04:16;;;;;;;0.38;0.38;;;11.20;99.90;;;;;;4929194;29;20048;-71
2023/06/09 02:06:42;;;;;;;1.37;1.37;;;11.40;99.90;;;;;;4934186;29;20040;-71
2023/06/09 02:09:09;;;;;;;1.10;1.10;;;11.10;99.90;;;;;;4933563;29;20114;-71
2023/06/09 02:11:34;;;;;;;1.65;1.55;;;11.20;99.90;;;;;;4945016;29;20047;-71
2023/06/09 02:14:00;;;;;;;1.40;0.98;;;11.20;99.90;;;;;;4941922;29;20106;-71
2023/06/09 02:16:25;;;;;;;0.73;0.73;;;11.30;99.90;;;;;;4933362;29;20054;-71
2023/06/09 02:18:53;;;;;;;1.40;1.30;;;11.10;99.90;;;;;;4931192;29;20474;-71
2023/06/09 02:21:19;;;;;;;0.93;0.80;;;11.10;99.90;;;;;;4940612;29;20424;-71
2023/06/09 02:23:45;;;;;;;0.32;0.32;;;11.10;99.90;;;;;;4932839;28;20048;-71
2023/06/09 02:26:10;;;;;;;1.85;1.75;;;11.20;99.90;;;;;;4940450;29;20035;-71
2023/06/09 02:28:36;;;;;;;1.33;1.30;;;11.10;99.90;;;;;;4948151;29;20075;-71
2023/06/09 02:31:03;;;;;;;2.05;1.45;;;11.20;99.90;;;;;;4942588;29;20393;-71
2023/06/09 02:33:29;;;;;;;0.80;0.80;;;11.10;99.90;;;;;;4941820;29;20516;-71
2023/06/09 02:35:55;;;;;;;1.73;1.55;;;11.30;99.90;;;;;;4937609;29;20039;-71
2023/06/09 02:38:21;;;;;;;3.03;2.00;;;11.30;99.90;;;;;;4932658;29;20050;-71
2023/06/09 02:40:47;;;;;;;2.53;1.65;;;11.30;99.90;;;;;;4935930;29;20603;-71
2023/06/09 02:43:13;;;;;;;3.00;0.95;;;11.10;99.90;;;;;;4922247;29;20052;-71
2023/06/09 02:45:38;;;;;;;2.00;1.88;;;11.20;99.90;;;;;;4944528;29;20126;-71
2023/06/09 02:48:05;;;;;;;1.38;1.27;;;11.20;99.90;;;;;;4935852;28;20165;-71
2023/06/09 02:50:31;;;;;;;0.80;0.80;;;11.10;99.90;;;;;;4939955;29;20036;-71
2023/06/09 02:52:56;;;;;;;1.90;1.80;;;11.40;99.90;;;;;;4946877;29;20515;-70
2023/06/09 02:55:22;;;;;;;1.48;1.48;;;11.50;99.90;;;;;;4926838;29;20101;-71
2023/06/09 02:57:48;;;;;;;7.82;3.60;;;11.40;99.90;;;;;;4929519;29;20492;-70
2023/06/09 03:00:14;;;;;;;3.47;2.58;;;11.40;99.90;;;;;;4942856;29;20054;-71
2023/06/09 03:02:41;;;;;;;1.45;1.15;;;11.40;99.90;;;;;;4930732;28;20524;-71
2023/06/09 03:05:07;;;;;;;1.40;1.30;;;11.40;99.90;;;;;;4924728;29;20044;-71
2023/06/09 03:07:33;;;;;;;2.30;1.95;;;11.40;99.90;;;;;;4924026;29;20542;-71
2023/06/09 03:10:00;;;;;;;1.42;1.42;;;11.50;99.90;;;;;;4931217;29;20497;-71
2023/06/09 03:12:26;;;;;;;4.30;2.05;;;11.50;99.90;;;;;;4931093;29;20140;-71
2023/06/09 03:14:51;;;;;;;1.75;1.65;;;11.50;99.90;;;;;;4925682;28;20534;-71
2023/06/09 03:17:17;;;;;;;6.63;3.83;;;11.40;99.90;;;;;;4924713;29;23056;-71
2023/06/09 03:19:43;;;;;;;3.45;3.15;;;11.40;99.90;;;;;;4931338;29;20051;-71
2023/06/09 03:22:09;;;;;;;2.00;1.90;;;11.60;99.90;;;;;;4933794;29;20043;-71
2023/06/09 03:24:35;;;;;;;2.33;2.22;;;11.30;99.90;;;;;;4941020;29;20040;-71
2023/06/09 03:27:00;;;;;;;2.30;2.10;;;11.40;99.90;;;;;;4934263;29;20466;-71
2023/06/09 03:29:28;;;;;;;1.35;1.25;;;11.40;99.90;;;;;;4931623;29;20050;-71
2023/06/09 03:31:55;;;;;;;3.20;2.80;;;11.40;99.90;;;;;;4935453;29;20075;-71
2023/06/09 03:34:20;;;;;;;1.77;1.67;;;11.70;99.90;;;;;;4927952;29;20480;-71
2023/06/09 03:36:46;;;;;;;3.10;2.83;;;11.60;99.90;;;;;;4929532;29;20042;-71
2023/06/09 03:39:12;;;;;;;4.30;2.88;;;11.30;99.90;;;;;;4939104;29;20048;-71
2023/06/09 03:41:38;;;;;;;4.57;2.67;;;11.60;99.90;;;;;;4933029;29;20059;-71
2023/06/09 03:44:03;;;;;;;4.00;2.90;;;11.60;99.90;;;;;;4941363;29;20095;-71
2023/06/09 03:46:29;;;;;;;1.52;1.42;;;11.50;99.90;;;;;;4938773;29;20051;-71
2023/06/09 03:48:55;;;;;;;2.78;2.55;;;11.70;99.90;;;;;;4935065;29;20489;-71
2023/06/09 03:51:20;;;;;;;2.58;1.75;;;11.50;99.90;;;;;;4915048;29;20062;-71
2023/06/09 03:53:46;;;;;;;2.83;2.67;;;11.70;99.90;;;;;;4928651;29;20559;-70
2023/06/09 03:56:13;;;;;;;4.43;3.95;;;11.70;99.90;;;;;;4933280;29;20048;-71
2023/06/09 03:58:39;;;;;;;3.10;2.55;;;11.70;99.90;;;;;;4934992;29;20055;-71
2023/06/09 04:01:10;;;;;;;4.50;2.60;;;11.70;99.90;;;;;;4943690;29;20441;-70
2023/06/09 04:03:39;;;;;;;3.15;2.92;;;12.10;99.90;;;;;;4938622;29;20123;-70
2023/06/09 04:06:05;;;;;;;1.58;1.48;;;12.00;99.90;;;;;;4931780;29;20052;-70
2023/06/09 04:08:31;;;;;;;1.65;1.55;;;11.90;99.90;;;;;;4941312;29;20046;-70
2023/06/09 04:10:57;;;;;;;3.63;3.33;;;11.90;99.90;;;;;;4928287;29;20039;-70
2023/06/09 04:13:23;;;;;;;3.03;2.80;;;11.90;99.90;;;;;;4937104;29;20087;-70
2023/06/09 04:15:49;;;;;;;1.30;1.30;;;12.00;99.90;;;;;;4935061;29;20051;-70
2023/06/09 04:18:15;;;;;;;2.45;2.15;;;12.30;99.90;;;;;;4934325;29;20043;-71
2023/06/09 04:20:41;;;;;;;4.68;4.25;;;12.10;99.90;;;;;;4941202;28;20047;-71
2023/06/09 04:23:08;;;;;;;2.90;2.63;;;12.30;99.90;;;;;;4939423;29;20110;-70
2023/06/09 04:25:34;;;;;;;2.83;2.63;;;12.20;99.90;;;;;;4934986;28;20054;-70
2023/06/09 04:28:02;;;;;;;1.83;1.73;;;12.10;99.90;;;;;;4928292;29;20154;-70
2023/06/09 04:30:29;;;;;;;6.40;3.38;;;12.30;99.90;;;;;;4935614;28;20058;-71
2023/06/09 04:32:58;;;;;;;2.80;2.58;;;12.20;99.90;;;;;;4934859;29;20417;-70
2023/06/09 04:35:24;;;;;;;3.90;3.17;;;12.00;99.90;;;;;;4938644;28;20560;-70
2023/06/09 04:37:50;;;;;;;2.38;2.28;;;12.30;99.90;;;;;;4935174;29;20043;-70
2023/06/09 04:40:21;;;;;;;3.35;3.05;;;12.50;99.90;;;;;;4931993;29;20432;-70
2023/06/09 04:42:51;;;;;;;2.15;1.63;;;12.50;99.90;;;;;;4935844;29;20055;-70
2023/06/09 04:45:18;;;;;;;1.98;1.85;;;12.40;99.90;;;;;;4936408;29;20087;-71
2023/06/09 04:47:48;;;;;;;2.42;1.88;;;12.40;99.90;;;;;;4937697;29;20087;-70
2023/06/09 04:50:17;;;;;;;1.38;1.27;;;12.70;99.90;;;;;;4938367;29;20047;-70
2023/06/09 04:52:44;;;;;;;2.28;0.77;;;12.50;99.90;;;;;;4933845;29;20050;-70
2023/06/09 04:55:12;;;;;;;2.47;1.95;;;12.70;99.90;;;;;;4937071;29;20430;-70
2023/06/09 04:57:38;;;;;;;;;;;13.00;99.90;;;;;;4936502;29;20043;-70
2023/06/09 05:00:06;;;;;;;3.83;2.20;;;12.90;99.90;;;;;;4939538;29;19927;-70
2023/06/09 05:02:32;;;;;;;1.77;1.00;;;13.00;99.90;;;;;;4940721;29;20070;-70
2023/06/09 05:04:58;;;;;;;1.48;1.38;;;13.30;99.90;;;;;;4936588;29;20551;-71
2023/06/09 05:07:24;;;;;;;1.27;1.17;;;13.20;99.90;;;;;;4930217;29;20067;-71
2023/06/09 05:09:49;;;;;;;2.35;1.98;;;13.20;99.90;;;;;;4944018;29;20042;-70
2023/06/09 05:12:15;;;;;;;2.53;1.25;;;13.10;99.90;;;;;;4927922;29;20059;-70
2023/06/09 05:14:42;;;;;;;1.20;1.13;;;13.40;99.90;;;;;;4940572;29;20051;-70
2023/06/09 05:17:08;;;;;;;2.13;2.03;;;13.20;99.90;;;;;;4941347;29;20085;-70
2023/06/09 05:19:33;;;;;;;1.88;1.77;;;13.40;99.90;;;;;;4943907;29;20508;-71
2023/06/09 05:21:59;;;;;;;3.38;2.58;;;13.20;99.90;;;;;;4934860;29;20329;-70
2023/06/09 05:24:25;;;;;;;2.67;2.58;;;13.20;99.90;;;;;;4938635;29;20048;-70
2023/06/09 05:26:50;;;;;;;5.13;4.18;;;13.50;99.90;;;;;;4941324;29;20476;-70
2023/06/09 05:29:16;;;;;;;3.08;2.53;;;13.50;99.90;;;;;;4938754;29;20040;-70
2023/06/09 05:31:42;;;;;;;2.15;1.98;;;;;;;;;;4931903;29;20097;-70
2023/06/09 05:34:08;;;;;;;5.25;4.15;;;;;;;;;;4942450;29;20047;-70
2023/06/09 05:36:36;;;;;;;3.28;2.47;;;;;;;;;;4926179;29;20418;-70
2023/06/09 05:39:02;;;;;;;1.77;1.63;;;;;;;;;;4935788;29;20591;-70
2023/06/09 05:41:28;;;;;;;7.38;3.60;;;;;;;;;;4927453;28;20528;-70
2023/06/09 05:43:57;;;;;;;3.08;2.72;;;14.00;99.90;;;;;;4942552;29;20047;-71
2023/06/09 05:46:23;;;;;;;5.63;4.55;;;14.40;99.90;;;;;;4929460;29;20390;-70
2023/06/09 05:48:50;;;;;;;3.05;2.40;;;;;;;;;;4935978;29;20039;-71
2023/06/09 05:51:17;;;;;;;11.00;5.10;;;;;;;;;;4920396;29;20051;-70
2023/06/09 05:53:43;;;;;;;4.38;3.13;;;;;;;;;;4927986;29;20183;-71
2023/06/09 05:56:09;;;;;;;4.10;3.80;;;;;;;;;;4933121;29;20044;-70
2023/06/09 05:58:37;;;;;;;4.28;3.72;;;14.50;99.90;;;;;;4939223;29;20064;-71
2023/06/09 06:01:07;;;;;;;2.10;1.42;;;14.60;99.90;;;;;;4938889;29;20394;-71
2023/06/09 06:03:33;;;;;;;7.03;3.53;;;14.60;99.90;;;;;;4939684;29;20043;-70
2023/06/09 06:05:58;;;;;;;4.75;2.67;;;14.70;99.90;;;;;;4935491;29;20154;-70
2023/06/09 06:08:24;;;;;;;3.22;2.20;;;14.80;99.90;;;;;;4937395;29;20058;-70
2023/06/09 06:10:51;;;;;;;4.53;2.17;;;14.80;99.90;;;;;;4902722;29;20051;-70
2023/06/09 06:13:17;;;;;;;2.58;2.38;;;14.80;99.90;;;;;;4932980;29;20493;-70
2023/06/09 06:15:43;;;;;;;3.92;3.13;;;14.90;99.90;;;;;;4935528;29;20042;-70
2023/06/09 06:18:08;;;;;;;3.45;3.22;;;15.00;99.90;;;;;;4933591;28;20046;-70
2023/06/09 06:20:34;;;;;;;5.43;2.83;;;15.10;99.90;;;;;;4936285;29;20044;-71
2023/06/09 06:22:59;;;;;;;1.45;1.35;;;15.20;99.90;;;;;;4933446;29;20055;-71
2023/06/09 06:25:25;;;;;;;3.90;3.58;;;15.30;99.90;;;;;;4941580;29;20076;-71
2023/06/09 06:27:51;;;;;;;2.63;2.42;;;15.30;99.90;;;;;;4932138;28;20126;-70
2023/06/09 06:30:17;;;;;;;3.88;2.92;;;15.40;99.90;;;;;;4943877;28;20324;-71
2023/06/09 06:32:52;;;;;;;2.22;2.13;;;15.60;99.90;;;;;;4935976;28;20052;-71
2023/06/09 06:35:26;;;;;;;3.75;3.45;;;15.70;99.90;;;;;;4937583;28;20044;-71
2023/06/09 06:37:52;;;;;;;3.38;2.85;;;15.90;99.90;;;;;;4933375;29;20347;-71
2023/06/09 06:40:18;;;;;;;3.67;3.38;;;16.10;99.90;;;;;;4940686;29;20042;-71
2023/06/09 06:42:44;;;;;;;1.70;1.65;;;16.30;99.90;;;;;;4930245;29;20044;-70
2023/06/09 06:45:10;;;;;;;2.80;2.60;;;16.50;99.90;;;;;;4931861;29;20103;-70
2023/06/09 06:47:35;;;;;;;7.20;4.15;;;16.60;99.90;;;;;;4936662;29;20040;-70
2023/06/09 06:50:02;;;;;;;2.75;2.55;;;16.80;99.90;;;;;;4931684;29;20047;-71
2023/06/09 06:52:28;;;;;;;2.05;1.95;;;17.00;99.90;;;;;;4926974;29;20627;-71
2023/06/09 06:54:53;;;;;;;4.90;4.25;;;17.10;99.90;;;;;;4939810;28;20039;-71
2023/06/09 06:57:19;;;;;;;1.35;1.35;;;17.20;99.90;;;;;;4928470;28;20075;-71
2023/06/09 06:59:45;;;;;;;1.40;1.33;;;17.50;99.90;;;;;;4933211;29;20174;-71
2023/06/09 07:02:10;;;;;;;1.70;1.60;;;17.70;99.90;;;;;;4934666;29;20079;-71
2023/06/09 07:04:36;;;;;;;2.90;1.88;;;17.80;99.90;;;;;;4938628;29;20075;-71
2023/06/09 07:07:02;;;;;;;5.63;2.00;;;18.00;99.90;;;;;;4933799;29;20099;-71
2023/06/09 07:09:28;;;;;;;2.05;1.92;;;18.10;99.90;;;;;;4932984;29;20046;-71
2023/06/09 07:11:54;;;;;;;2.85;2.60;;;18.20;99.90;;;;;;4932791;29;20048;-71
2023/06/09 07:14:20;;;;;;;1.60;1.58;;;18.30;99.90;;;;;;4942133;29;20078;-71
2023/06/09 07:16:45;;;;;;;9.93;3.25;;;18.40;99.90;;;;;;4939259;29;20048;-71
2023/06/09 07:19:11;;;;;;;1.77;1.67;;;18.50;99.90;;;;;;4945159;28;20050;-71
2023/06/09 07:21:37;;;;;;;2.00;1.90;;;18.60;99.90;;;;;;4938363;29;20379;-71
2023/06/09 07:24:06;;;;;;;2.35;1.40;;;18.80;99.90;;;;;;4943528;29;20047;-71
2023/06/09 07:26:32;;;;;;;2.05;1.95;;;19.00;99.90;;;;;;4933381;29;20039;-70
2023/06/09 07:28:58;;;;;;;2.08;1.98;;;19.10;99.90;;;;;;4942648;29;20397;-71
2023/06/09 07:31:24;;;;;;;2.95;2.28;;;19.40;99.90;;;;;;4940698;29;20043;-71
2023/06/09 07:33:50;;;;;;;1.40;1.30;;;19.50;99.90;;;;;;4927887;29;20547;-71
2023/06/09 07:36:16;;;;;;;1.92;1.83;;;19.60;99.90;;;;;;4935512;29;20036;-69
2023/06/09 07:38:46;;;;;;;2.45;1.83;;;19.70;99.90;;;;;;4938483;29;20054;-70
2023/06/09 07:41:12;;;;;;;2.85;2.65;;;19.80;99.90;;;;;;4930615;29;20059;-71
2023/06/09 07:43:38;;;;;;;1.65;1.55;;;19.90;99.90;;;;;;4934200;29;20044;-71
2023/06/09 07:46:04;;;;;;;3.25;2.90;;;20.00;99.90;;;;;;4936272;29;20103;-71
2023/06/09 07:48:29;;;;;;;6.03;2.78;;;20.10;99.90;;;;;;4933709;29;20047;-69
2023/06/09 07:50:56;;;;;;;2.05;1.95;;;20.20;99.90;;;;;;4932022;29;20127;-69
2023/06/09 07:53:22;;;;;;;4.43;3.50;;;20.40;99.90;;;;;;4934742;29;20049;-69
2023/06/09 07:55:48;;;;;;;7.63;5.75;;;20.50;99.90;;;;;;4931623;29;20503;-71
2023/06/09 07:58:14;;;;;;;8.60;5.55;;;20.50;99.90;;;;;;4936107;29;20051;-71
2023/06/09 08:00:41;;;;;;;3.72;1.60;;;20.50;99.90;;;;;;4940036;28;20051;-69
2023/06/09 08:03:07;;;;;;;2.20;2.00;;;20.70;99.90;;;;;;4928420;29;20039;-69
2023/06/09 08:05:33;;;;;;;5.07;3.75;;;20.90;99.90;;;;;;4933793;28;20075;-71
2023/06/09 08:08:00;;;;;;;3.22;3.03;;;21.00;99.90;;;;;;4930683;29;20047;-70
2023/06/09 08:10:26;;;;;;;3.53;2.75;;;21.00;99.90;;;;;;4940514;29;20125;-68
2023/06/09 08:12:52;;;;;;;1.38;1.27;;;21.20;99.90;;;;;;4940175;29;20074;-66
2023/06/09 08:15:18;;;;;;;6.65;3.83;;;21.40;99.90;;;;;;4932137;29;20078;-67
2023/06/09 08:17:44;;;;;;;8.45;3.83;;;21.50;99.90;;;;;;4937289;29;20047;-67
2023/06/09 08:20:10;;;;;;;1.30;1.20;;;21.60;99.90;;;;;;4926595;29;20047;-68
2023/06/09 08:22:35;;;;;;;2.25;2.15;;;21.80;99.90;;;;;;4932677;29;20043;-68
2023/06/09 08:25:02;;;;;;;3.50;3.05;;;21.90;99.20;;;;;;4932128;29;20118;-68
2023/06/09 08:27:28;;;;;;;5.35;3.60;;;22.00;98.70;;;;;;4930545;29;20047;-70
2023/06/09 08:29:53;;;;;;;3.25;2.40;;;22.00;97.40;;;;;;4934841;29;20044;-71
2023/06/09 08:32:19;;;;;;;2.97;2.78;;;22.10;95.90;;;;;;4937404;29;20043;-70
2023/06/09 08:34:44;;;;;;;4.28;3.85;;;22.30;94.90;;;;;;4935317;29;20071;-68
2023/06/09 08:37:10;;;;;;;3.63;2.95;;;22.20;94.80;;;;;;4931047;29;20060;-69
2023/06/09 08:39:36;;;;;;;3.40;2.72;;;22.40;94.10;;;;;;4934166;29;20050;-67
2023/06/09 08:42:07;;;;;;;9.18;4.18;;;22.30;92.90;;;;;;4932575;28;20059;-70
2023/06/09 08:44:42;;;;;;;3.50;3.20;;;22.40;93.20;;;;;;4929834;29;20052;-70
2023/06/09 08:47:09;;;;;;;2.70;2.60;;;22.50;93.40;;;;;;4932025;29;20047;-68
2023/06/09 08:49:36;;;;;;;2.97;2.63;;;22.70;93.30;;;;;;4934308;29;20047;-69
2023/06/09 08:52:04;;;;;;;2.78;2.58;;;22.80;92.40;;;;;;4933480;28;20048;-69
2023/06/09 08:54:31;;;;;;;2.85;2.47;;;22.90;92.80;;;;;;4937962;29;20043;-68
2023/06/09 08:56:57;;;;;;;3.45;3.08;;;23.00;91.30;;;;;;4938890;29;20043;-70
2023/06/09 08:59:23;;;;;;;3.30;2.97;;;23.10;91.50;;;;;;4910892;29;20083;-70
2023/06/09 09:01:49;;;;;;;3.65;2.13;;;23.30;91.10;;;;;;4928480;29;20074;-69
2023/06/09 09:04:16;;;;;;;1.65;1.55;;;23.60;91.00;;;;;;4945456;29;20125;-68
2023/06/09 09:06:42;;;;;;;3.13;2.85;;;23.60;88.00;;;;;;4937957;29;20474;-70
2023/06/09 09:09:08;;;;;;;7.53;2.28;;;23.70;86.70;;;;;;4933542;29;20126;-69
2023/06/09 09:11:35;;;;;;;2.55;2.35;;;23.70;87.20;;;;;;4927810;29;20135;-69
2023/06/09 09:14:10;;;;;;;1.20;1.20;;;23.80;85.60;;;;;;4932978;29;20133;-69
2023/06/09 09:16:36;;;;;;;2.83;2.63;;;23.90;84.80;;;;;;4929843;29;20123;-69
2023/06/09 09:19:03;;;;;;;2.15;1.98;;;24.10;84.10;;;;;;4932522;29;20456;-69
2023/06/09 09:21:29;;;;;;;2.53;2.33;;;24.10;82.30;;;;;;4931289;29;20071;-70
2023/06/09 09:24:01;;;;;;;2.88;2.03;;;24.20;82.00;;;;;;4934737;29;20043;-69
2023/06/09 09:26:30;;;;;;;2.50;2.33;;;24.40;83.80;;;;;;4931771;29;20082;-69
2023/06/09 09:29:01;;;;;;;3.33;2.85;;;24.50;81.40;;;;;;4930020;29;20040;-70
2023/06/09 09:31:35;;;;;;;8.40;3.03;;;24.50;80.60;;;;;;4930781;29;20039;-69
2023/06/09 09:34:01;;;;;;;8.27;3.35;;;24.70;79.20;;;;;;4933906;29;20423;-69
2023/06/09 09:36:28;;;;;;;2.60;2.50;;;24.70;76.90;;;;;;4936761;29;20075;-69
2023/06/09 09:39:01;;;;;;;4.60;3.67;;;24.90;78.50;;;;;;4935150;29;20040;-69
2023/06/09 09:41:26;;;;;;;4.35;3.95;;;25.10;77.20;;;;;;4937346;29;20147;-69
2023/06/09 09:43:56;;;;;;;3.60;3.35;;;25.10;76.00;;;;;;4934178;29;20143;-69
2023/06/09 09:46:23;;;;;;;2.92;2.70;;;25.10;75.20;;;;;;4934152;29;20047;-69
2023/06/09 09:48:49;;;;;;;3.20;2.95;;;25.20;75.40;;;;;;4934279;29;20052;-69
2023/06/09 09:51:15;;;;;;;3.08;2.80;;;25.30;74.10;;;;;;4934814;29;20577;-69
2023/06/09 09:53:50;;;;;;;2.22;2.03;;;25.40;74.40;;;;;;4931681;29;20052;-69
2023/06/09 09:56:19;;;;;;;10.43;4.45;;;25.50;72.10;;;;;;4925568;29;20055;-69
2023/06/09 09:58:52;;;;;;;2.25;2.05;;;25.50;73.20;;;;;;4939192;29;20130;-69
2023/06/09 10:01:22;;;;;;;3.03;2.60;;;25.70;73.30;;;;;;4927026;29;20110;-69
2023/06/09 10:03:48;;;;;;;3.65;3.08;;;25.90;72.50;;;;;;4936315;29;20444;-69
2023/06/09 10:06:18;;;;;;;3.15;3.00;;;26.00;69.30;;;;;;4937868;29;20044;-69
2023/06/09 10:08:45;;;;;;;3.03;2.53;;;25.90;68.90;;;;;;4944461;29;20044;-69
2023/06/09 10:11:12;;;;;;;6.53;3.83;;;25.90;68.30;;;;;;4934147;29;20127;-69
2023/06/09 10:13:38;;;;;;;2.47;2.28;;;25.90;67.40;;;;;;4938846;29;20051;-69
2023/06/09 10:16:04;;;;;;;3.03;2.72;;;25.90;68.20;;;;;;4931541;29;20051;-69
2023/06/09 10:18:31;;;;;;;4.43;2.80;;;25.90;66.60;;;;;;4931354;29;20040;-69
2023/06/09 10:20:57;;;;;;;6.82;3.63;;;26.10;66.20;;;;;;4940942;29;20087;-69
2023/06/09 10:23:23;;;;;;;2.40;2.17;;;26.30;66.30;;;;;;4942913;29;20063;-69
2023/06/09 10:25:50;;;;;;;4.30;3.30;;;26.30;65.80;;;;;;4934491;29;20483;-71
2023/06/09 10:28:17;;;;;;;3.53;3.13;;;26.40;65.30;;;;;;4939281;29;20076;-69
2023/06/09 10:30:43;;;;;;;3.30;3.05;;;26.60;65.00;;;;;;4934175;29;20469;-69
2023/06/09 10:33:26;;;;;;;5.80;3.47;;;26.80;63.70;;;;;;4939801;29;20058;-69
2023/06/09 10:35:57;;;;;;;3.65;3.35;;;26.90;63.20;;;;;;4941549;29;20059;-70
2023/06/09 10:38:30;;;;;;;4.90;4.22;;;26.70;62.20;;;;;;4936193;28;20036;-69
2023/06/09 10:41:19;;;;;;;6.88;3.15;;;26.80;63.60;;;;;;4949107;29;20082;-69
2023/06/09 10:43:53;;;;;;;3.17;2.97;;;27.10;63.50;;;;;;4926656;29;20044;-69
2023/06/09 10:46:44;;;;;;;3.30;2.67;;;27.20;61.80;;;;;;4938489;29;20052;-69
2023/06/09 10:49:40;;;;;;;5.30;3.30;;;27.20;62.40;;;;;;4930057;29;20073;-69
2023/06/09 10:52:35;;;;;;;6.20;2.67;;;27.10;61.70;;;;;;4933949;29;20051;-70
2023/06/09 10:55:15;;;;;;;3.85;3.65;;;27.10;62.40;;;;;;4930345;29;20055;-70
2023/06/09 10:57:41;;;;;;;3.65;3.33;;;27.00;61.90;;;;;;4944640;29;20102;-70
2023/06/09 11:00:11;;;;;;;5.15;4.70;;;27.10;61.80;;;;;;4939494;28;20705;-70
2023/06/09 11:03:11;;;;;;;4.35;2.88;;;27.20;61.30;;;;;;4937734;29;20400;-69
2023/06/09 11:05:57;;;;;;;4.45;3.85;;;27.30;61.70;;;;;;4937932;29;20612;-69
2023/06/09 11:08:23;;;;;;;1.63;1.52;;;27.40;61.10;;;;;;4934506;29;20043;-69
2023/06/09 11:10:48;;;;;;;11.45;4.05;;;27.60;61.10;;;;;;4930548;29;20036;-70
2023/06/09 11:13:35;;;;;;;2.95;2.75;;;27.50;58.60;;;;;;4943326;29;20460;-70
2023/06/09 11:16:01;;;;;;;;;;;27.50;60.80;;;;;;4942036;29;20044;-70
2023/06/09 11:18:27;;;;;;;3.35;3.05;;;27.60;59.10;;;;;;4938445;29;19923;-69
2023/06/09 11:21:10;;;;;;;3.80;3.50;;;27.60;59.30;;;;;;4936736;28;20043;-71
2023/06/09 11:24:00;;;;;;;6.32;4.47;;;27.60;59.50;;;;;;4940295;29;20138;-69
2023/06/09 11:26:26;;;;;;;12.77;5.28;;;27.70;58.30;;;;;;4935691;29;20191;-69
2023/06/09 11:28:52;;;;;;;4.65;2.78;;;27.50;58.20;;;;;;4933797;29;20433;-72
2023/06/09 11:31:18;;;;;;;5.35;4.57;;;27.60;58.90;;;;;;4938225;29;20086;-70
2023/06/09 11:33:49;;;;;;;4.03;3.75;;;27.80;58.70;;;;;;4935239;29;20171;-70
2023/06/09 11:36:21;;;;;;;4.80;3.80;;;27.90;58.40;;;;;;4934576;29;20032;-68
2023/06/09 11:38:47;;;;;;;6.00;3.28;;;27.90;58.10;;;;;;4930798;29;20044;-69
2023/06/09 11:41:17;;;;;;;2.53;2.42;;;27.90;58.40;;;;;;4938694;29;20051;-70
2023/06/09 11:43:50;;;;;;;3.92;3.20;;;28.00;57.80;;;;;;4929288;29;20505;-69
2023/06/09 11:46:16;;;;;;;6.35;4.13;;;28.20;57.60;;;;;;4932879;29;20690;-67
2023/06/09 11:49:03;;;;;;;5.00;3.03;;;28.20;56.50;;;;;;4932733;29;20079;-71
2023/06/09 11:51:29;;;;;;;4.90;4.53;;;28.20;56.70;;;;;;4932951;29;20036;-70
2023/06/09 11:53:55;;;;;;;4.95;4.05;;;28.10;57.60;;;;;;4927933;29;20058;-70
2023/06/09 11:56:21;;;;;;;6.55;5.63;;;28.30;57.00;;;;;;4933588;28;20154;-70
2023/06/09 11:58:51;;;;;;;3.15;3.00;;;28.20;56.30;;;;;;4928376;29;20083;-70
2023/06/09 12:01:19;;;;;;;3.75;2.75;;;28.20;57.20;;;;;;4938606;29;20451;-71
2023/06/09 12:03:45;;;;;;;5.55;3.17;;;28.30;57.20;;;;;;4923963;29;20066;-69
2023/06/09 12:06:16;;;;;;;4.30;3.97;;;28.40;56.30;;;;;;4943878;29;20485;-69
2023/06/09 12:08:42;;;;;;;3.50;3.20;;;28.50;57.40;;;;;;4940977;29;20410;-70
2023/06/09 12:11:16;;;;;;;2.70;2.30;;;28.50;55.90;;;;;;4939304;29;20054;-70
2023/06/09 12:13:46;;;;;;;4.57;4.18;;;28.50;56.60;;;;;;4939954;28;20074;-70
2023/06/09 12:16:12;;;;;;;3.92;3.67;;;28.50;56.10;;;;;;4929857;29;20052;-69
2023/06/09 12:18:38;;;;;;;5.13;4.18;;;28.50;55.90;;;;;;4942314;29;20051;-68
2023/06/09 12:21:05;;;;;;;8.70;4.00;;;28.50;55.40;;;;;;4931866;29;20046;-69
2023/06/09 12:23:32;;;;;;;2.92;2.75;;;28.60;56.70;;;;;;4928336;29;20058;-69
2023/06/09 12:26:04;;;;;;;7.40;4.85;;;28.60;54.70;;;;;;4942915;29;20118;-68
2023/06/09 12:28:30;;;;;;;6.53;5.13;;;28.50;55.50;;;;;;4936024;29;20409;-69
2023/06/09 12:31:06;;;;;;;2.65;2.45;;;28.60;55.00;;;;;;4946735;28;20040;-69
2023/06/09 12:33:31;;;;;;;6.93;4.75;;;28.50;55.80;;;;;;4939571;29;20048;-69
2023/06/09 12:36:09;;;;;;;7.30;4.40;;;28.70;56.20;;;;;;4946509;29;20053;-69
2023/06/09 12:38:39;;;;;;;5.45;4.95;;;28.80;54.80;;;;;;4927277;29;20047;-69
2023/06/09 12:41:09;;;;;;;10.13;3.70;;;28.90;54.60;;;;;;4926131;29;21206;-68
2023/06/09 12:43:52;;;;;;;6.10;4.30;;;28.70;54.30;;;;;;4928420;29;20043;-68
2023/06/09 12:46:29;;;;;;;4.53;3.30;;;28.70;53.80;;;;;;4923194;29;20162;-69
2023/06/09 12:49:02;;;;;;;2.47;2.15;;;28.90;54.00;;;;;;4930759;29;20845;-68
2023/06/09 12:51:29;;;;;;;6.20;4.72;;;28.90;54.40;;;;;;4936518;28;20035;-68
2023/06/09 12:53:55;;;;;;;7.82;5.63;;;29.00;53.90;;;;;;4931644;29;20048;-69
2023/06/09 12:56:21;;;;;;;4.57;4.17;;;28.80;53.80;;;;;;4934563;29;20240;-69